sensor_id;sensor_type;location;lat;lon;timestamp;pressure;altitude;pressure_sealevel;temperature;humidity
45403;BME280;47427;51.976;5.326;2023-04-26T00:01:30;101915.09;;;2.85;100.00
45403;BME280;47427;51.976;5.326;2023-04-26T00:04:53;101909.34;;;2.77;100.00
45403;BME280;47427;51.976;5.326;2023-04-26T00:08:17;101910.56;;;2.70;100.00
45403;BME280;47427;51.976;5.326;2023-04-26T00:11:38;101904.94;;;2.64;100.00
45403;BME280;47427;51.976;5.326;2023-04-26T00:15:02;101907.19;;;2.59;100.00
45403;BME280;47427;51.976;5.326;2023-04-26T00:18:25;101906.84;;;2.55;100.00
45403;BME280;47427;51.976;5.326;2023-04-26T00:21:46;101909.19;;;2.52;100.00
45403;BME280;47427;51.976;5.326;2023-04-26T00:25:09;101906.94;;;2.45;100.00
45403;BME280;47427;51.976;5.326;2023-04-26T00:28:31;101903.97;;;2.40;100.00
45403;BME280;47427;51.976;5.326;2023-04-26T00:31:54;101901.38;;;2.28;100.00
45403;BME280;47427;51.976;5.326;2023-04-26T00:35:17;101903.03;;;2.28;100.00
45403;BME280;47427;51.976;5.326;2023-04-26T00:38:38;101901.91;;;2.24;100.00
45403;BME280;47427;51.976;5.326;2023-04-26T00:42:01;101900.66;;;2.19;100.00
45403;BME280;47427;51.976;5.326;2023-04-26T00:45:24;101896.81;;;2.14;100.00
45403;BME280;47427;51.976;5.326;2023-04-26T00:48:47;101896.81;;;2.14;100.00
45403;BME280;47427;51.976;5.326;2023-04-26T00:52:10;101884.69;;;2.13;100.00
45403;BME280;47427;51.976;5.326;2023-04-26T00:55:31;101894.00;;;2.11;100.00
45403;BME280;47427;51.976;5.326;2023-04-26T00:58:54;101897.13;;;2.07;100.00
45403;BME280;47427;51.976;5.326;2023-04-26T01:02:18;101894.19;;;2.02;100.00
45403;BME280;47427;51.976;5.326;2023-04-26T01:05:39;101900.81;;;1.99;100.00
45403;BME280;47427;51.976;5.326;2023-04-26T01:09:03;101898.78;;;1.94;100.00
45403;BME280;47427;51.976;5.326;2023-04-26T01:12:29;101894.25;;;1.92;100.00
45403;BME280;47427;51.976;5.326;2023-04-26T01:15:51;101897.28;;;1.86;100.00
45403;BME280;47427;51.976;5.326;2023-04-26T01:19:15;101899.88;;;1.86;100.00
45403;BME280;47427;51.976;5.326;2023-04-26T01:22:39;101908.28;;;1.84;100.00
45403;BME280;47427;51.976;5.326;2023-04-26T01:26:01;101899.28;;;1.79;100.00
45403;BME280;47427;51.976;5.326;2023-04-26T01:29:24;101909.38;;;1.76;100.00
45403;BME280;47427;51.976;5.326;2023-04-26T01:32:47;101908.13;;;1.70;100.00
45403;BME280;47427;51.976;5.326;2023-04-26T01:36:09;101911.22;;;1.66;100.00
45403;BME280;47427;51.976;5.326;2023-04-26T01:39:33;101917.06;;;1.64;100.00
45403;BME280;47427;51.976;5.326;2023-04-26T01:42:55;101916.03;;;1.62;100.00
45403;BME280;47427;51.976;5.326;2023-04-26T01:46:17;101910.19;;;1.64;100.00
45403;BME280;47427;51.976;5.326;2023-04-26T01:49:40;101903.09;;;1.62;100.00
45403;BME280;47427;51.976;5.326;2023-04-26T01:53:02;101901.19;;;1.59;100.00
45403;BME280;47427;51.976;5.326;2023-04-26T01:56:43;101897.69;;;1.59;100.00
45403;BME280;47427;51.976;5.326;2023-04-26T02:00:07;101903.53;;;1.56;100.00
45403;BME280;47427;51.976;5.326;2023-04-26T02:03:36;101899.25;;;1.57;100.00
45403;BME280;47427;51.976;5.326;2023-04-26T02:06:59;101900.94;;;1.56;100.00
45403;BME280;47427;51.976;5.326;2023-04-26T02:10:20;101898.91;;;1.52;100.00
45403;BME280;47427;51.976;5.326;2023-04-26T02:13:43;101902.41;;;1.52;100.00
45403;BME280;47427;51.976;5.326;2023-04-26T02:17:06;101899.31;;;1.46;100.00
45403;BME280;47427;51.976;5.326;2023-04-26T02:20:29;101901.38;;;1.50;100.00
45403;BME280;47427;51.976;5.326;2023-04-26T02:23:52;101902.03;;;1.48;100.00
45403;BME280;47427;51.976;5.326;2023-04-26T02:27:13;101906.41;;;1.49;100.00
45403;BME280;47427;51.976;5.326;2023-04-26T02:30:55;101899.69;;;1.51;100.00
45403;BME280;47427;51.976;5.326;2023-04-26T02:34:17;101906.31;;;1.47;100.00
45403;BME280;47427;51.976;5.326;2023-04-26T02:37:38;101900.25;;;1.47;100.00
45403;BME280;47427;51.976;5.326;2023-04-26T02:41:02;101906.16;;;1.46;100.00
45403;BME280;47427;51.976;5.326;2023-04-26T02:44:28;101895.34;;;1.40;100.00
45403;BME280;47427;51.976;5.326;2023-04-26T02:47:52;101899.34;;;1.36;100.00
45403;BME280;47427;51.976;5.326;2023-04-26T02:51:15;101899.34;;;1.36;100.00
45403;BME280;47427;51.976;5.326;2023-04-26T02:54:36;101892.09;;;1.42;100.00
45403;BME280;47427;51.976;5.326;2023-04-26T02:57:59;101895.59;;;1.43;100.00
45403;BME280;47427;51.976;5.326;2023-04-26T03:01:22;101891.19;;;1.42;100.00
45403;BME280;47427;51.976;5.326;2023-04-26T03:04:45;101888.25;;;1.37;100.00
45403;BME280;47427;51.976;5.326;2023-04-26T03:08:08;101888.91;;;1.35;100.00
45403;BME280;47427;51.976;5.326;2023-04-26T03:11:29;101889.81;;;1.35;100.00
45403;BME280;47427;51.976;5.326;2023-04-26T03:14:52;101881.91;;;1.34;100.00
45403;BME280;47427;51.976;5.326;2023-04-26T03:18:19;101882.81;;;1.34;100.00
45403;BME280;47427;51.976;5.326;2023-04-26T03:21:40;101888.91;;;1.35;100.00
45403;BME280;47427;51.976;5.326;2023-04-26T03:25:04;101889.66;;;1.34;100.00
45403;BME280;47427;51.976;5.326;2023-04-26T03:28:27;101890.34;;;1.31;100.00
45403;BME280;47427;51.976;5.326;2023-04-26T03:31:50;101882.19;;;1.26;100.00
45403;BME280;47427;51.976;5.326;2023-04-26T03:35:13;101877.03;;;1.26;100.00
45403;BME280;47427;51.976;5.326;2023-04-26T03:38:34;101875.53;;;1.18;100.00
45403;BME280;47427;51.976;5.326;2023-04-26T03:41:57;101877.63;;;1.12;100.00
45403;BME280;47427;51.976;5.326;2023-04-26T03:45:20;101879.19;;;1.10;100.00
45403;BME280;47427;51.976;5.326;2023-04-26T03:48:41;101886.03;;;1.10;100.00
45403;BME280;47427;51.976;5.326;2023-04-26T03:52:04;101882.41;;;1.07;100.00
45403;BME280;47427;51.976;5.326;2023-04-26T03:55:27;101889.28;;;1.07;100.00
45403;BME280;47427;51.976;5.326;2023-04-26T03:58:48;101880.34;;;1.03;100.00
45403;BME280;47427;51.976;5.326;2023-04-26T04:02:11;101879.22;;;1.00;100.00
45403;BME280;47427;51.976;5.326;2023-04-26T04:05:33;101884.25;;;0.98;100.00
45403;BME280;47427;51.976;5.326;2023-04-26T04:08:56;101879.88;;;0.97;100.00
45403;BME280;47427;51.976;5.326;2023-04-26T04:12:19;101877.44;;;0.99;100.00
45403;BME280;47427;51.976;5.326;2023-04-26T04:15:41;101872.63;;;0.93;100.00
45403;BME280;47427;51.976;5.326;2023-04-26T04:19:03;101878.84;;;0.95;100.00
45403;BME280;47427;51.976;5.326;2023-04-26T04:22:27;101872.13;;;0.97;100.00
45403;BME280;47427;51.976;5.326;2023-04-26T04:25:48;101874.72;;;0.97;100.00
45403;BME280;47427;51.976;5.326;2023-04-26T04:29:13;101878.31;;;0.99;100.00
45403;BME280;47427;51.976;5.326;2023-04-26T04:32:37;101880.00;;;0.99;100.00
45403;BME280;47427;51.976;5.326;2023-04-26T04:36:06;101878.69;;;1.04;100.00
45403;BME280;47427;51.976;5.326;2023-04-26T04:39:30;101887.72;;;1.09;100.00
45403;BME280;47427;51.976;5.326;2023-04-26T04:42:51;101891.69;;;1.16;100.00
45403;BME280;47427;51.976;5.326;2023-04-26T04:46:19;101886.38;;;1.24;100.00
45403;BME280;47427;51.976;5.326;2023-04-26T04:49:42;101890.69;;;1.36;100.00
45403;BME280;47427;51.976;5.326;2023-04-26T04:53:04;101890.66;;;1.46;100.00
45403;BME280;47427;51.976;5.326;2023-04-26T04:56:27;101902.78;;;1.57;100.00
45403;BME280;47427;51.976;5.326;2023-04-26T04:59:51;101897.63;;;1.69;100.00
45403;BME280;47427;51.976;5.326;2023-04-26T05:03:13;101892.09;;;1.86;100.00
45403;BME280;47427;51.976;5.326;2023-04-26T05:06:54;101891.34;;;2.21;100.00
45403;BME280;47427;51.976;5.326;2023-04-26T05:10:18;101889.84;;;2.58;100.00
45403;BME280;47427;51.976;5.326;2023-04-26T05:13:41;101898.09;;;2.88;100.00
45403;BME280;47427;51.976;5.326;2023-04-26T05:17:05;101902.16;;;3.08;100.00
45403;BME280;47427;51.976;5.326;2023-04-26T05:20:27;101902.50;;;3.24;100.00
45403;BME280;47427;51.976;5.326;2023-04-26T05:23:51;101905.59;;;3.44;100.00
45403;BME280;47427;51.976;5.326;2023-04-26T05:27:14;101900.72;;;3.60;100.00
45403;BME280;47427;51.976;5.326;2023-04-26T05:30:45;101900.94;;;3.63;100.00
45403;BME280;47427;51.976;5.326;2023-04-26T05:34:23;101904.91;;;3.58;100.00
45403;BME280;47427;51.976;5.326;2023-04-26T05:37:51;101907.38;;;3.57;100.00
45403;BME280;47427;51.976;5.326;2023-04-26T05:41:13;101910.63;;;3.66;100.00
45403;BME280;47427;51.976;5.326;2023-04-26T05:44:36;101922.91;;;3.80;100.00
45403;BME280;47427;51.976;5.326;2023-04-26T05:47:57;101915.59;;;4.00;100.00
45403;BME280;47427;51.976;5.326;2023-04-26T05:51:20;101913.69;;;4.22;100.00
45403;BME280;47427;51.976;5.326;2023-04-26T05:54:43;101908.38;;;4.46;100.00
45403;BME280;47427;51.976;5.326;2023-04-26T05:58:04;101914.13;;;4.67;100.00
45403;BME280;47427;51.976;5.326;2023-04-26T06:01:28;101912.66;;;4.97;100.00
45403;BME280;47427;51.976;5.326;2023-04-26T06:05:09;101914.16;;;5.20;100.00
45403;BME280;47427;51.976;5.326;2023-04-26T06:08:32;101919.06;;;5.42;100.00
45403;BME280;47427;51.976;5.326;2023-04-26T06:11:55;101913.34;;;5.48;100.00
45403;BME280;47427;51.976;5.326;2023-04-26T06:15:17;101911.53;;;5.60;100.00
45403;BME280;47427;51.976;5.326;2023-04-26T06:18:40;101918.09;;;5.68;100.00
45403;BME280;47427;51.976;5.326;2023-04-26T06:22:03;101915.31;;;6.06;100.00
45403;BME280;47427;51.976;5.326;2023-04-26T06:25:24;101925.03;;;6.67;100.00
45403;BME280;47427;51.976;5.326;2023-04-26T06:28:47;101928.88;;;7.18;100.00
45403;BME280;47427;51.976;5.326;2023-04-26T06:32:13;101926.13;;;7.77;100.00
45403;BME280;47427;51.976;5.326;2023-04-26T06:35:39;101925.47;;;7.98;100.00
45403;BME280;47427;51.976;5.326;2023-04-26T06:39:03;101934.78;;;8.09;100.00
45403;BME280;47427;51.976;5.326;2023-04-26T06:42:25;101934.78;;;8.25;100.00
45403;BME280;47427;51.976;5.326;2023-04-26T06:46:07;101939.78;;;8.54;100.00
45403;BME280;47427;51.976;5.326;2023-04-26T06:49:28;101937.41;;;8.93;100.00
45403;BME280;47427;51.976;5.326;2023-04-26T06:52:51;101940.34;;;9.35;99.61
45403;BME280;47427;51.976;5.326;2023-04-26T06:56:14;101941.22;;;9.71;96.14
45403;BME280;47427;51.976;5.326;2023-04-26T06:59:36;101943.06;;;9.73;94.06
45403;BME280;47427;51.976;5.326;2023-04-26T07:02:59;101932.06;;;9.81;92.85
45403;BME280;47427;51.976;5.326;2023-04-26T07:06:23;101929.75;;;10.06;91.37
45403;BME280;47427;51.976;5.326;2023-04-26T07:09:44;101927.84;;;10.41;87.96
45403;BME280;47427;51.976;5.326;2023-04-26T07:13:07;101928.53;;;10.77;84.85
45403;BME280;47427;51.976;5.326;2023-04-26T07:16:30;101934.44;;;10.52;82.59
45403;BME280;47427;51.976;5.326;2023-04-26T07:19:51;101935.69;;;10.22;83.24
45403;BME280;47427;51.976;5.326;2023-04-26T07:23:14;101932.84;;;10.17;82.63
45403;BME280;47427;51.976;5.326;2023-04-26T07:26:36;101920.91;;;10.24;83.37
45403;BME280;47427;51.976;5.326;2023-04-26T07:29:58;101925.41;;;10.46;83.11
45403;BME280;47427;51.976;5.326;2023-04-26T07:33:21;101927.69;;;10.18;79.66
45403;BME280;47427;51.976;5.326;2023-04-26T07:36:42;101926.63;;;10.15;79.74
45403;BME280;47427;51.976;5.326;2023-04-26T07:40:06;101935.09;;;9.90;78.96
45403;BME280;47427;51.976;5.326;2023-04-26T07:43:31;101939.63;;;9.74;80.36
45403;BME280;47427;51.976;5.326;2023-04-26T07:46:52;101943.34;;;9.24;80.13
45403;BME280;47427;51.976;5.326;2023-04-26T07:50:15;101925.44;;;9.33;82.13
45403;BME280;47427;51.976;5.326;2023-04-26T07:53:38;101933.38;;;9.53;79.95
45403;BME280;47427;51.976;5.326;2023-04-26T07:57:01;101937.31;;;10.00;78.68
45403;BME280;47427;51.976;5.326;2023-04-26T08:00:24;101938.03;;;10.35;66.69
45403;BME280;47427;51.976;5.326;2023-04-26T08:03:45;101944.06;;;10.52;65.35
45403;BME280;47427;51.976;5.326;2023-04-26T08:07:10;101942.94;;;10.66;64.63
45403;BME280;47427;51.976;5.326;2023-04-26T08:10:32;101944.41;;;10.80;62.83
45403;BME280;47427;51.976;5.326;2023-04-26T08:13:55;101949.09;;;11.09;63.83
45403;BME280;47427;51.976;5.326;2023-04-26T08:17:18;101954.56;;;11.79;60.68
45403;BME280;47427;51.976;5.326;2023-04-26T08:20:40;101959.53;;;11.92;58.43
45403;BME280;47427;51.976;5.326;2023-04-26T08:24:03;101958.84;;;11.77;58.38
45403;BME280;47427;51.976;5.326;2023-04-26T08:27:26;101956.22;;;12.22;57.86
45403;BME280;47427;51.976;5.326;2023-04-26T08:30:48;101944.69;;;14.01;54.92
45403;BME280;47427;51.976;5.326;2023-04-26T08:34:29;101942.78;;;16.89;47.81
45403;BME280;47427;51.976;5.326;2023-04-26T08:37:56;101933.75;;;17.29;47.11
45403;BME280;47427;51.976;5.326;2023-04-26T08:41:21;101935.94;;;19.03;43.74
45403;BME280;47427;51.976;5.326;2023-04-26T08:44:46;101931.53;;;20.72;39.57
45403;BME280;47427;51.976;5.326;2023-04-26T08:48:10;101931.97;;;25.07;32.88
45403;BME280;47427;51.976;5.326;2023-04-26T08:51:35;101932.72;;;25.65;30.56
45403;BME280;47427;51.976;5.326;2023-04-26T08:54:58;101929.47;;;22.40;30.07
45403;BME280;47427;51.976;5.326;2023-04-26T08:58:20;101925.00;;;19.87;33.63
45403;BME280;47427;51.976;5.326;2023-04-26T09:01:43;101931.22;;;17.39;36.37
45403;BME280;47427;51.976;5.326;2023-04-26T09:05:08;101929.63;;;15.66;40.53
45403;BME280;47427;51.976;5.326;2023-04-26T09:08:35;101920.75;;;14.57;42.47
45403;BME280;47427;51.976;5.326;2023-04-26T09:12:01;101916.88;;;13.83;43.96
45403;BME280;47427;51.976;5.326;2023-04-26T09:15:25;101921.34;;;13.29;46.04
45403;BME280;47427;51.976;5.326;2023-04-26T09:18:51;101919.22;;;12.91;47.38
45403;BME280;47427;51.976;5.326;2023-04-26T09:22:31;101930.09;;;12.03;48.40
45403;BME280;47427;51.976;5.326;2023-04-26T09:25:53;101940.03;;;11.66;50.27
45403;BME280;47427;51.976;5.326;2023-04-26T09:29:17;101935.16;;;11.53;51.69
45403;BME280;47427;51.976;5.326;2023-04-26T09:32:57;101941.06;;;11.47;52.56
45403;BME280;47427;51.976;5.326;2023-04-26T09:36:20;101946.41;;;11.28;52.00
45403;BME280;47427;51.976;5.326;2023-04-26T09:39:43;101943.84;;;11.09;53.32
45403;BME280;47427;51.976;5.326;2023-04-26T09:43:07;101951.06;;;10.93;53.63
45403;BME280;47427;51.976;5.326;2023-04-26T09:46:29;101948.00;;;10.82;54.61
45403;BME280;47427;51.976;5.326;2023-04-26T09:49:51;101950.97;;;10.71;54.37
45403;BME280;47427;51.976;5.326;2023-04-26T09:53:35;101941.34;;;10.50;55.00
45403;BME280;47427;51.976;5.326;2023-04-26T09:56:59;101941.13;;;10.65;55.82
45403;BME280;47427;51.976;5.326;2023-04-26T10:00:23;101941.53;;;10.74;55.71
45403;BME280;47427;51.976;5.326;2023-04-26T10:03:46;101944.69;;;11.07;55.06
45403;BME280;47427;51.976;5.326;2023-04-26T10:07:08;101939.09;;;11.21;53.98
45403;BME280;47427;51.976;5.326;2023-04-26T10:10:30;101946.84;;;11.61;53.96
45403;BME280;47427;51.976;5.326;2023-04-26T10:17:39;101932.66;;;13.00;51.82
45403;BME280;47427;51.976;5.326;2023-04-26T10:21:29;101938.50;;;14.00;49.87
45403;BME280;47427;51.976;5.326;2023-04-26T10:24:55;101935.88;;;15.68;46.25
45403;BME280;47427;51.976;5.326;2023-04-26T10:32:09;101918.94;;;20.28;37.37
45403;BME280;47427;51.976;5.326;2023-04-26T10:35:36;101924.00;;;19.69;37.12
45403;BME280;47427;51.976;5.326;2023-04-26T10:39:19;101914.03;;;18.43;38.99
45403;BME280;47427;51.976;5.326;2023-04-26T10:46:39;101926.69;;;15.92;40.99
45403;BME280;47427;51.976;5.326;2023-04-26T10:50:10;101925.38;;;14.65;42.95
45403;BME280;47427;51.976;5.326;2023-04-26T10:57:12;101938.41;;;13.14;47.88
45403;BME280;47427;51.976;5.326;2023-04-26T11:00:34;101934.00;;;12.62;48.28
45403;BME280;47427;51.976;5.326;2023-04-26T11:07:37;101927.56;;;12.06;49.78
45403;BME280;47427;51.976;5.326;2023-04-26T11:11:10;101931.44;;;11.70;50.42
45403;BME280;47427;51.976;5.326;2023-04-26T11:14:33;101936.22;;;11.58;51.64
45403;BME280;47427;51.976;5.326;2023-04-26T11:18:02;101925.94;;;11.64;51.65
45403;BME280;47427;51.976;5.326;2023-04-26T11:21:28;101919.97;;;11.68;51.79
45403;BME280;47427;51.976;5.326;2023-04-26T11:24:50;101912.59;;;12.05;51.34
45403;BME280;47427;51.976;5.326;2023-04-26T11:28:36;101908.06;;;12.23;50.77
45403;BME280;47427;51.976;5.326;2023-04-26T11:31:58;101913.56;;;12.55;50.28
45403;BME280;47427;51.976;5.326;2023-04-26T11:35:22;101910.91;;;12.55;48.46
45403;BME280;47427;51.976;5.326;2023-04-26T11:38:45;101912.19;;;12.41;48.32
45403;BME280;47427;51.976;5.326;2023-04-26T11:42:08;101910.28;;;12.62;48.88
45403;BME280;47427;51.976;5.326;2023-04-26T11:45:33;101910.31;;;13.15;48.83
45403;BME280;47427;51.976;5.326;2023-04-26T11:48:57;101921.47;;;13.33;46.10
45403;BME280;47427;51.976;5.326;2023-04-26T11:52:20;101915.81;;;13.48;47.08
45403;BME280;47427;51.976;5.326;2023-04-26T11:55:44;101916.56;;;13.73;45.90
45403;BME280;47427;51.976;5.326;2023-04-26T11:59:06;101911.19;;;14.00;45.84
45403;BME280;47427;51.976;5.326;2023-04-26T12:02:29;101912.59;;;14.49;45.46
45403;BME280;47427;51.976;5.326;2023-04-26T12:05:55;101911.75;;;15.18;45.13
45403;BME280;47427;51.976;5.326;2023-04-26T12:09:26;101901.13;;;15.92;43.56
45403;BME280;47427;51.976;5.326;2023-04-26T12:12:50;101901.66;;;16.64;41.75
45403;BME280;47427;51.976;5.326;2023-04-26T12:16:13;101902.53;;;17.13;40.86
45403;BME280;47427;51.976;5.326;2023-04-26T12:19:39;101906.28;;;17.27;39.34
45403;BME280;47427;51.976;5.326;2023-04-26T12:23:05;101911.91;;;16.93;39.09
45403;BME280;47427;51.976;5.326;2023-04-26T12:26:43;101899.72;;;17.02;40.31
45403;BME280;47427;51.976;5.326;2023-04-26T12:30:05;101906.28;;;17.27;38.97
45403;BME280;47427;51.976;5.326;2023-04-26T12:33:29;101906.72;;;19.08;35.99
45403;BME280;47427;51.976;5.326;2023-04-26T12:36:51;101904.66;;;22.13;31.06
45403;BME280;47427;51.976;5.326;2023-04-26T12:40:14;101907.91;;;22.66;29.59
45403;BME280;47427;51.976;5.326;2023-04-26T12:43:37;101898.84;;;22.85;29.64
45403;BME280;47427;51.976;5.326;2023-04-26T12:46:59;101901.16;;;24.10;28.33
45403;BME280;47427;51.976;5.326;2023-04-26T12:50:22;101897.22;;;23.68;28.70
45403;BME280;47427;51.976;5.326;2023-04-26T12:53:43;101895.53;;;26.30;25.36
45403;BME280;47427;51.976;5.326;2023-04-26T12:57:06;101889.84;;;27.84;23.17
45403;BME280;47427;51.976;5.326;2023-04-26T13:00:29;101884.34;;;25.18;25.55
45403;BME280;47427;51.976;5.326;2023-04-26T13:03:50;101890.69;;;23.93;25.93
45403;BME280;47427;51.976;5.326;2023-04-26T13:07:13;101887.47;;;24.91;25.34
45403;BME280;47427;51.976;5.326;2023-04-26T13:10:36;101894.91;;;23.31;27.69
45403;BME280;47427;51.976;5.326;2023-04-26T13:13:57;101884.66;;;22.76;28.81
45403;BME280;47427;51.976;5.326;2023-04-26T13:17:23;101888.59;;;22.12;29.34
45403;BME280;47427;51.976;5.326;2023-04-26T13:20:45;101885.28;;;21.39;28.91
45403;BME280;47427;51.976;5.326;2023-04-26T13:24:08;101879.97;;;20.64;30.49
45403;BME280;47427;51.976;5.326;2023-04-26T13:27:30;101883.53;;;20.67;31.36
45403;BME280;47427;51.976;5.326;2023-04-26T13:30:52;101884.44;;;20.89;30.86
45403;BME280;47427;51.976;5.326;2023-04-26T13:34:15;101885.28;;;21.43;30.95
45403;BME280;47427;51.976;5.326;2023-04-26T13:37:38;101885.47;;;25.03;26.49
45403;BME280;47427;51.976;5.326;2023-04-26T13:40:59;101888.34;;;23.63;27.24
45403;BME280;47427;51.976;5.326;2023-04-26T13:44:22;101890.63;;;21.48;29.49
45403;BME280;47427;51.976;5.326;2023-04-26T13:47:43;101892.41;;;20.59;30.05
45403;BME280;47427;51.976;5.326;2023-04-26T13:51:06;101895.84;;;20.30;31.12
45403;BME280;47427;51.976;5.326;2023-04-26T13:54:29;101889.44;;;19.76;32.36
45403;BME280;47427;51.976;5.326;2023-04-26T13:57:50;101888.00;;;20.79;30.83
45403;BME280;47427;51.976;5.326;2023-04-26T14:01:13;101896.88;;;21.03;30.91
45403;BME280;47427;51.976;5.326;2023-04-26T14:04:36;101893.28;;;21.27;30.63
45403;BME280;47427;51.976;5.326;2023-04-26T14:07:57;101878.97;;;21.75;28.78
45403;BME280;47427;51.976;5.326;2023-04-26T14:11:20;101876.09;;;22.26;28.78
45403;BME280;47427;51.976;5.326;2023-04-26T14:14:43;101885.28;;;20.54;30.73
45403;BME280;47427;51.976;5.326;2023-04-26T14:18:07;101881.81;;;18.98;32.41
45403;BME280;47427;51.976;5.326;2023-04-26T14:21:30;101884.97;;;17.82;34.08
45403;BME280;47427;51.976;5.326;2023-04-26T14:24:52;101887.38;;;17.04;34.47
45403;BME280;47427;51.976;5.326;2023-04-26T14:28:15;101881.03;;;16.47;36.89
45403;BME280;47427;51.976;5.326;2023-04-26T14:31:38;101886.38;;;16.03;37.21
45403;BME280;47427;51.976;5.326;2023-04-26T14:34:59;101888.44;;;15.38;38.23
45403;BME280;47427;51.976;5.326;2023-04-26T14:38:22;101891.88;;;14.98;39.47
45403;BME280;47427;51.976;5.326;2023-04-26T14:41:44;101900.84;;;14.69;40.30
45403;BME280;47427;51.976;5.326;2023-04-26T14:45:08;101895.75;;;14.44;40.69
45403;BME280;47427;51.976;5.326;2023-04-26T14:48:50;101897.78;;;14.22;40.70
45403;BME280;47427;51.976;5.326;2023-04-26T14:52:12;101890.44;;;14.11;41.54
45403;BME280;47427;51.976;5.326;2023-04-26T14:55:57;101886.06;;;14.13;41.86
45403;BME280;47427;51.976;5.326;2023-04-26T14:59:20;101886.34;;;13.92;41.06
45403;BME280;47427;51.976;5.326;2023-04-26T15:02:43;101886.13;;;13.84;41.72
45403;BME280;47427;51.976;5.326;2023-04-26T15:06:07;101880.09;;;13.88;41.42
45403;BME280;47427;51.976;5.326;2023-04-26T15:09:31;101883.94;;;13.99;40.48
45403;BME280;47427;51.976;5.326;2023-04-26T15:13:03;101880.50;;;14.34;40.45
45403;BME280;47427;51.976;5.326;2023-04-26T15:16:44;101883.50;;;14.81;40.73
45403;BME280;47427;51.976;5.326;2023-04-26T15:20:07;101887.59;;;15.03;37.85
45403;BME280;47427;51.976;5.326;2023-04-26T15:23:49;101876.47;;;14.80;37.93
45403;BME280;47427;51.976;5.326;2023-04-26T15:27:12;101873.44;;;15.01;37.72
45403;BME280;47427;51.976;5.326;2023-04-26T15:30:35;101878.09;;;15.09;38.41
45403;BME280;47427;51.976;5.326;2023-04-26T15:33:56;101877.00;;;15.39;38.14
45403;BME280;47427;51.976;5.326;2023-04-26T15:37:20;101883.75;;;15.26;38.24
45403;BME280;47427;51.976;5.326;2023-04-26T15:40:42;101865.75;;;15.48;37.36
45403;BME280;47427;51.976;5.326;2023-04-26T15:44:06;101865.66;;;15.84;37.91
45403;BME280;47427;51.976;5.326;2023-04-26T15:47:29;101867.59;;;15.91;37.57
45403;BME280;47427;51.976;5.326;2023-04-26T15:50:52;101875.41;;;15.85;37.88
45403;BME280;47427;51.976;5.326;2023-04-26T15:54:16;101876.34;;;15.49;38.64
45403;BME280;47427;51.976;5.326;2023-04-26T15:57:40;101880.56;;;15.03;39.55
45403;BME280;47427;51.976;5.326;2023-04-26T16:01:03;101876.09;;;14.66;40.73
45403;BME280;47427;51.976;5.326;2023-04-26T16:04:24;101877.06;;;14.38;40.87
45403;BME280;47427;51.976;5.326;2023-04-26T16:07:47;101873.81;;;13.84;41.09
45403;BME280;47427;51.976;5.326;2023-04-26T16:11:18;101881.16;;;13.36;42.29
45403;BME280;47427;51.976;5.326;2023-04-26T16:14:40;101882.28;;;12.90;42.64
45403;BME280;47427;51.976;5.326;2023-04-26T16:18:03;101881.69;;;12.73;43.44
45403;BME280;47427;51.976;5.326;2023-04-26T16:21:25;101885.03;;;12.67;43.99
45403;BME280;47427;51.976;5.326;2023-04-26T16:24:48;101888.44;;;12.65;43.82
45403;BME280;47427;51.976;5.326;2023-04-26T16:28:10;101889.50;;;12.70;43.68
45403;BME280;47427;51.976;5.326;2023-04-26T16:31:33;101885.19;;;12.72;43.70
45403;BME280;47427;51.976;5.326;2023-04-26T16:34:56;101894.34;;;12.57;43.70
45403;BME280;47427;51.976;5.326;2023-04-26T16:38:18;101881.59;;;12.70;43.96
45403;BME280;47427;51.976;5.326;2023-04-26T16:41:41;101880.97;;;12.77;44.03
45403;BME280;47427;51.976;5.326;2023-04-26T16:45:04;101876.38;;;12.97;43.99
45403;BME280;47427;51.976;5.326;2023-04-26T16:48:26;101874.97;;;13.08;43.29
45403;BME280;47427;51.976;5.326;2023-04-26T16:51:49;101881.53;;;13.21;43.81
45403;BME280;47427;51.976;5.326;2023-04-26T16:55:18;101876.41;;;13.26;43.30
45403;BME280;47427;51.976;5.326;2023-04-26T16:58:41;101876.13;;;13.43;43.80
45403;BME280;47427;51.976;5.326;2023-04-26T17:02:04;101875.13;;;13.40;44.02
45403;BME280;47427;51.976;5.326;2023-04-26T17:05:25;101871.78;;;13.46;43.88
45403;BME280;47427;51.976;5.326;2023-04-26T17:08:48;101875.00;;;13.35;44.61
45403;BME280;47427;51.976;5.326;2023-04-26T17:12:11;101889.41;;;13.19;45.48
45403;BME280;47427;51.976;5.326;2023-04-26T17:15:33;101880.88;;;13.01;44.49
45403;BME280;47427;51.976;5.326;2023-04-26T17:18:56;101882.56;;;12.72;44.87
45403;BME280;47427;51.976;5.326;2023-04-26T17:22:18;101888.34;;;12.62;45.32
45403;BME280;47427;51.976;5.326;2023-04-26T17:25:41;101897.22;;;12.40;45.43
45403;BME280;47427;51.976;5.326;2023-04-26T17:29:03;101886.72;;;12.16;45.21
45403;BME280;47427;51.976;5.326;2023-04-26T17:32:25;101892.59;;;12.08;46.38
45403;BME280;47427;51.976;5.326;2023-04-26T17:35:48;101895.06;;;12.04;47.23
45403;BME280;47427;51.976;5.326;2023-04-26T17:39:28;101895.22;;;11.86;48.27
45403;BME280;47427;51.976;5.326;2023-04-26T17:42:50;101895.31;;;11.65;48.88
45403;BME280;47427;51.976;5.326;2023-04-26T17:46:12;101899.97;;;11.49;48.86
45403;BME280;47427;51.976;5.326;2023-04-26T17:49:34;101910.88;;;11.38;49.58
45403;BME280;47427;51.976;5.326;2023-04-26T17:52:57;101913.91;;;11.26;50.55
45403;BME280;47427;51.976;5.326;2023-04-26T17:56:20;101919.63;;;11.16;51.53
45403;BME280;47427;51.976;5.326;2023-04-26T17:59:42;101909.56;;;11.05;51.28
45403;BME280;47427;51.976;5.326;2023-04-26T18:03:04;101915.56;;;11.01;51.63
45403;BME280;47427;51.976;5.326;2023-04-26T18:06:27;101926.63;;;10.94;52.23